Time;durP1;ratioP1;P1;durP2;ratioP2;P2;SDS_P1;SDS_P2;PMS_P1;PMS_P2;Temp;Humidity;BMP_temperature;BMP_pressure;BME280_temperature;BME280_humidity;BME280_pressure;Samples;Min_cycle;Max_cycle;Signal;HPM_P1;HPM_P2
2023/12/07 00:02:20;;;;;;;123.10;57.70;;;;;;;-2.67;95.95;100307.52;130977;1305;22572;-89
2023/12/07 00:05:21;;;;;;;119.20;56.10;;;;;;;-2.65;95.83;100311.76;131735;1304;22457;-87
2023/12/07 00:08:21;;;;;;;115.30;52.30;;;;;;;-2.65;95.97;100310.54;133003;1305;22563;-87
2023/12/07 00:11:25;;;;;;;121.80;58.70;;;;;;;-2.65;96.17;100314.38;132875;1306;23219;-87
2023/12/07 00:14:25;;;;;;;122.40;55.40;;;;;;;-2.66;96.13;100311.66;132995;1307;22595;-87
2023/12/07 00:17:26;;;;;;;129.20;57.90;;;;;;;-2.66;95.99;100310.79;131363;1305;22600;-90
2023/12/07 00:20:26;;;;;;;125.60;60.60;;;;;;;-2.67;96.09;100311.51;131271;1305;22358;-83
2023/12/07 00:23:27;;;;;;;133.30;60.40;;;;;;;-2.67;96.00;100311.67;131310;1305;22638;-87
2023/12/07 00:26:27;;;;;;;132.20;59.60;;;;;;;-2.65;95.91;100312.64;130893;1297;22579;-86
2023/12/07 00:29:28;;;;;;;133.60;61.50;;;;;;;-2.61;96.21;100313.30;130736;1306;22601;-85
2023/12/07 00:32:29;;;;;;;129.10;55.50;;;;;;;-2.59;96.42;100315.75;131407;1305;22565;-87
2023/12/07 00:35:29;;;;;;;;;;;;;;;-2.58;96.19;100315.03;130708;1306;25354;-86
2023/12/07 00:38:32;;;;;;;83.50;39.30;;;;;;;-2.61;96.10;100316.21;130805;1302;22632;-85
2023/12/07 00:41:32;;;;;;;128.30;56.10;;;;;;;-2.63;96.29;100317.87;131563;1295;23263;-86
2023/12/07 00:44:33;;;;;;;127.40;57.80;;;;;;;-2.63;96.54;100321.33;130650;1303;23199;-88
2023/12/07 00:47:33;;;;;;;121.60;55.20;;;;;;;-2.64;96.27;100323.29;131653;1308;22569;-87
2023/12/07 00:50:34;;;;;;;116.40;52.40;;;;;;;-2.64;96.19;100324.00;130808;1303;22602;-84
2023/12/07 00:53:34;;;;;;;132.00;58.80;;;;;;;-2.65;96.35;100324.72;130715;1302;25520;-85
2023/12/07 00:56:37;;;;;;;119.20;54.20;;;;;;;-2.66;96.50;100327.04;131062;1301;23037;-87
2023/12/07 00:59:37;;;;;;;128.80;55.00;;;;;;;-2.65;96.38;100330.30;131347;1304;22582;-87
2023/12/07 01:02:38;;;;;;;122.50;57.70;;;;;;;-2.67;96.67;100329.52;130784;1302;23752;-86
2023/12/07 01:05:38;;;;;;;126.00;57.60;;;;;;;-2.69;96.65;100328.07;130716;1293;24340;-87
2023/12/07 01:08:39;;;;;;;131.40;59.70;;;;;;;-2.73;96.65;100323.54;131328;1298;22581;-84
2023/12/07 01:11:40;;;;;;;134.70;59.00;;;;;;;-2.75;96.50;100321.61;130793;1306;23575;-85
2023/12/07 01:14:41;;;;;;;132.60;57.70;;;;;;;-2.77;96.63;100332.05;130665;1302;25518;-85
2023/12/07 01:17:41;;;;;;;124.10;56.60;;;;;;;-2.77;96.68;100330.54;130866;1299;23094;-85
2023/12/07 01:20:42;;;;;;;127.90;57.80;;;;;;;-2.78;96.83;100334.40;131270;1303;22450;-85
2023/12/07 01:23:42;;;;;;;125.30;54.50;;;;;;;-2.78;96.61;100331.10;130707;1292;24262;-85
2023/12/07 01:26:43;;;;;;;121.20;58.10;;;;;;;-2.78;96.69;100338.20;130753;1302;22684;-85
2023/12/07 01:29:44;;;;;;;134.30;58.70;;;;;;;-2.79;96.68;100340.66;131087;1308;22692;-86
2023/12/07 01:32:44;;;;;;;;;;;;;;;-2.79;96.71;100341.55;130764;1308;24298;-85
2023/12/07 01:35:45;;;;;;;88.60;42.50;;;;;;;-2.80;96.81;100342.61;130799;1305;25406;-85
2023/12/07 01:38:46;;;;;;;126.80;56.10;;;;;;;-2.80;96.68;100347.29;130729;1293;22549;-85
2023/12/07 01:41:46;;;;;;;132.40;58.20;;;;;;;-2.79;96.60;100346.54;130732;1305;23845;-85
2023/12/07 01:44:46;;;;;;;131.20;57.80;;;;;;;-2.78;96.76;100346.14;130814;1308;22673;-85
2023/12/07 01:47:50;;;;;;;131.70;59.30;;;;;;;-2.77;96.68;100343.16;130816;1304;22562;-86
2023/12/07 01:50:51;;;;;;;128.50;56.70;;;;;;;-2.75;96.80;100342.55;130733;1293;22663;-85
2023/12/07 01:53:52;;;;;;;131.50;60.20;;;;;;;-2.76;97.01;100344.64;131013;1297;22605;-86
2023/12/07 01:56:52;;;;;;;136.90;60.50;;;;;;;-2.75;96.58;100345.32;130823;1294;24184;-85
2023/12/07 01:59:53;;;;;;;132.00;60.20;;;;;;;-2.71;96.70;100349.77;130820;1302;26133;-85
2023/12/07 02:02:54;;;;;;;135.20;60.50;;;;;;;-2.67;96.88;100348.39;130967;1303;22606;-85
2023/12/07 02:05:57;;;;;;;131.70;59.70;;;;;;;-2.65;96.83;100350.73;132567;1305;22177;-86
2023/12/07 02:08:57;;;;;;;125.90;54.90;;;;;;;-2.65;96.62;100351.58;133616;1304;22384;-86
2023/12/07 02:11:58;;;;;;;129.80;59.70;;;;;;;-2.65;96.65;100351.55;131088;1308;22590;-85
2023/12/07 02:14:59;;;;;;;119.80;56.50;;;;;;;-2.64;96.75;100354.15;131456;1308;157182;-85
2023/12/07 02:18:34;;;;;;;129.20;58.40;;;;;;;-2.64;96.41;100355.18;131805;1303;23888;-85
2023/12/07 02:21:40;;;;;;;132.70;59.10;;;;;;;-2.64;96.54;100356.91;133360;1301;23306;-85
2023/12/07 02:24:48;;;;;;;132.80;61.70;;;;;;;-2.62;96.47;100359.91;133645;1303;22359;-86
2023/12/07 02:27:49;;;;;;;131.70;61.50;;;;;;;-2.58;96.67;100363.70;133621;1297;22377;-86
2023/12/07 02:30:49;;;;;;;129.60;59.30;;;;;;;-2.54;96.77;100365.73;131326;1303;22578;-86
2023/12/07 02:33:50;;;;;;;124.80;59.50;;;;;;;-2.50;96.63;100364.85;131633;1305;22717;-86
2023/12/07 02:36:55;;;;;;;127.40;57.30;;;;;;;-2.49;96.45;100366.18;132796;1301;22517;-85
2023/12/07 02:39:57;;;;;;;128.50;60.20;;;;;;;-2.49;96.48;100370.48;130946;1305;24355;-85
2023/12/07 02:42:59;;;;;;;130.40;60.00;;;;;;;-2.49;96.27;100373.98;132660;1301;22463;-85
2023/12/07 02:45:59;;;;;;;130.50;60.00;;;;;;;-2.50;96.31;100369.84;133572;1308;22247;-85
2023/12/07 02:49:00;;;;;;;134.20;61.70;;;;;;;-2.47;96.48;100373.92;133603;1303;22260;-85
2023/12/07 02:52:01;;;;;;;106.90;48.60;;;;;;;-2.45;96.46;100370.16;133553;1302;23282;-86
2023/12/07 02:55:02;;;;;;;138.10;59.90;;;;;;;-2.47;96.14;100374.42;133136;1305;22607;-85
2023/12/07 02:58:03;;;;;;;135.30;59.20;;;;;;;-2.51;96.31;100376.83;130938;1305;22572;-85
2023/12/07 03:01:04;;;;;;;129.90;57.20;;;;;;;-2.48;96.49;100382.77;130958;1303;22596;-85
2023/12/07 03:04:05;;;;;;;130.40;59.10;;;;;;;-2.45;96.50;100386.44;130924;1304;23898;-84
2023/12/07 03:07:05;;;;;;;135.80;62.00;;;;;;;-2.42;96.21;100392.52;130856;1304;22560;-85
2023/12/07 03:10:06;;;;;;;133.20;61.00;;;;;;;-2.40;96.42;100388.23;130816;1293;22747;-85
2023/12/07 03:13:07;;;;;;;131.90;60.90;;;;;;;-2.38;96.57;100391.79;132869;1305;23565;-87
2023/12/07 03:16:09;;;;;;;121.40;56.00;;;;;;;-2.39;96.42;100394.07;133007;1303;24061;-86
2023/12/07 03:19:09;;;;;;;121.90;56.20;;;;;;;-2.41;96.23;100395.95;130940;1304;24293;-86
2023/12/07 03:22:10;;;;;;;126.30;58.80;;;;;;;-2.43;96.32;100393.27;130706;1302;22611;-85
2023/12/07 03:25:11;;;;;;;115.90;52.80;;;;;;;-2.40;96.45;100394.16;130772;1303;22929;-85
2023/12/07 03:28:11;;;;;;;131.10;58.00;;;;;;;-2.39;96.34;100398.61;130751;1301;22578;-85
2023/12/07 03:31:12;;;;;;;129.00;59.20;;;;;;;-2.39;96.19;100404.83;130804;1306;24780;-86
2023/12/07 03:34:15;;;;;;;127.20;60.40;;;;;;;-2.40;96.17;100410.77;130434;1303;23664;-85
2023/12/07 03:37:15;;;;;;;121.40;58.70;;;;;;;-2.41;96.37;100409.61;131508;1305;22555;-86
2023/12/07 03:40:16;;;;;;;116.60;53.50;;;;;;;-2.40;96.48;100411.98;130557;1297;22564;-86
2023/12/07 03:43:19;;;;;;;141.70;62.70;;;;;;;-2.40;96.23;100410.92;130872;1303;22549;-86
2023/12/07 03:46:20;;;;;;;127.00;59.10;;;;;;;-2.40;96.24;100414.92;133565;1301;22713;-86
2023/12/07 03:49:20;;;;;;;123.20;59.40;;;;;;;-2.42;96.18;100419.17;133597;1305;22282;-86
2023/12/07 03:52:21;;;;;;;126.40;59.40;;;;;;;-2.42;96.25;100423.36;132503;1293;26838;-85
2023/12/07 03:55:21;;;;;;;130.60;60.70;;;;;;;-2.41;96.37;100423.29;130974;1293;23889;-85
2023/12/07 03:58:22;;;;;;;128.00;60.90;;;;;;;-2.36;96.58;100424.25;130979;1297;25006;-85
2023/12/07 04:01:23;;;;;;;130.20;59.60;;;;;;;-2.32;96.48;100423.17;130967;1306;23351;-85
2023/12/07 04:04:24;;;;;;;126.50;58.60;;;;;;;-2.29;96.40;100426.49;132836;1294;22593;-85
2023/12/07 04:07:25;;;;;;;118.00;56.70;;;;;;;-2.25;96.41;100433.05;130787;1297;22888;-86
2023/12/07 04:10:25;;;;;;;118.80;57.00;;;;;;;-2.24;96.49;100432.51;132411;1302;22575;-85
2023/12/07 04:13:26;;;;;;;125.10;59.50;;;;;;;-2.24;96.18;100436.83;132433;1305;22610;-85
2023/12/07 04:16:26;;;;;;;126.10;58.80;;;;;;;-2.22;96.24;100436.23;132281;1297;22583;-86
2023/12/07 04:19:27;;;;;;;124.80;58.20;;;;;;;-2.21;96.18;100431.34;130721;1306;24741;-86
2023/12/07 04:22:28;;;;;;;129.80;59.70;;;;;;;-2.21;96.08;100441.20;130837;1293;22561;-86
2023/12/07 04:25:29;;;;;;;126.30;58.20;;;;;;;-2.18;96.18;100445.88;130780;1302;22609;-85
2023/12/07 04:28:29;;;;;;;131.10;58.90;;;;;;;-2.17;96.08;100447.91;131063;1292;22685;-86
2023/12/07 04:31:30;;;;;;;132.70;59.00;;;;;;;-2.20;95.88;100450.16;131137;1300;22580;-86
2023/12/07 04:34:30;;;;;;;117.80;55.10;;;;;;;-2.21;95.97;100447.27;131167;1303;25440;-86
2023/12/07 04:37:31;;;;;;;127.00;60.60;;;;;;;-2.23;95.89;100447.39;130974;1305;24227;-86
2023/12/07 04:40:31;;;;;;;133.50;59.10;;;;;;;-2.24;96.06;100446.36;132772;1303;22231;-87
2023/12/07 04:43:33;;;;;;;127.10;59.20;;;;;;;-2.23;96.12;100450.48;131111;1300;22642;-85
2023/12/07 04:46:35;;;;;;;137.00;59.40;;;;;;;-2.22;96.23;100452.02;130946;1304;22604;-86
2023/12/07 04:49:35;;;;;;;125.70;59.20;;;;;;;-2.21;96.23;100448.48;130963;1302;24387;-87
2023/12/07 04:52:36;;;;;;;124.30;59.80;;;;;;;-2.23;96.02;100450.98;130736;1301;22564;-87
2023/12/07 04:55:36;;;;;;;125.30;60.80;;;;;;;-2.19;96.31;100451.15;130927;1296;22566;-85
2023/12/07 04:58:37;;;;;;;123.30;57.50;;;;;;;-2.17;96.61;100452.77;131448;1293;22568;-88
2023/12/07 05:01:38;;;;;;;125.00;59.10;;;;;;;-2.14;96.48;100458.67;130930;1302;24750;-88
2023/12/07 05:04:38;;;;;;;123.10;57.30;;;;;;;-2.11;96.21;100459.06;131241;1305;22582;-89
2023/12/07 05:07:39;;;;;;;133.00;61.90;;;;;;;-2.11;96.16;100457.16;132401;1304;23802;-83
2023/12/07 05:10:39;;;;;;;124.20;56.90;;;;;;;-2.09;96.31;100463.11;131166;1303;25340;-82
2023/12/07 05:13:40;;;;;;;126.60;60.70;;;;;;;-2.09;96.06;100469.68;130859;1303;23060;-88
2023/12/07 05:16:40;;;;;;;129.60;60.40;;;;;;;-2.11;96.16;100466.84;130984;1302;23026;-85
2023/12/07 05:19:41;;;;;;;116.50;55.80;;;;;;;-2.12;95.91;100474.18;131419;1303;25498;-83
2023/12/07 05:22:41;;;;;;;129.30;58.90;;;;;;;-2.16;95.81;100475.27;130632;1308;22617;-88
2023/12/07 05:25:42;;;;;;;129.10;59.30;;;;;;;-2.17;95.95;100479.66;130434;1308;24129;-90
2023/12/07 05:28:43;;;;;;;126.10;57.10;;;;;;;-2.18;95.99;100484.04;130808;1304;22739;-83
2023/12/07 05:31:44;;;;;;;;;;;;;;;-2.16;96.01;100489.96;130973;1293;22566;-83
2023/12/07 05:34:44;;;;;;;;;;;;;;;-2.12;96.18;100491.68;131663;1303;22578;-86
2023/12/07 05:37:45;;;;;;;;;;;;;;;-2.10;96.30;100493.83;130923;1308;25350;-86
2023/12/07 05:40:45;;;;;;;;;;;;;;;-2.10;96.10;100495.77;131075;1302;23718;-82
2023/12/07 05:43:45;;;;;;;;;;;;;;;-2.10;95.95;100492.97;130909;1302;22544;-82
2023/12/07 05:46:46;;;;;;;;;;;;;;;-2.10;96.02;100493.67;131296;1303;22531;-82
2023/12/07 05:49:47;;;;;;;;;;;;;;;-2.10;96.13;100493.65;131229;1303;22549;-82
2023/12/07 05:52:47;;;;;;;;;;;;;;;-2.09;95.98;100496.94;131090;1302;22624;-82
2023/12/07 05:55:48;;;;;;;;;;;;;;;-2.11;95.59;100498.91;130964;1289;26622;-83
2023/12/07 05:58:48;;;;;;;;;;;;;;;-2.14;95.82;100500.83;131460;1294;23368;-81
2023/12/07 06:01:51;;;;;;;;;;;;;;;-2.16;95.70;100499.52;133571;1300;22482;-88
2023/12/07 06:04:51;;;;;;;;;;;;;;;-2.16;95.61;100501.27;132192;1301;22688;-87
2023/12/07 06:07:54;;;;;;;;;;;;;;;-2.14;95.73;100504.98;130908;1300;26704;-86
2023/12/07 06:10:54;;;;;;;;;;;;;;;-2.11;95.96;100508.96;131058;1300;22571;-87
2023/12/07 06:13:54;;;;;;;;;;;;;;;-2.07;95.72;100509.11;131060;1301;22667;-85
2023/12/07 06:16:55;;;;;;;;;;;;;;;-2.08;95.68;100514.56;130718;1300;25239;-84
2023/12/07 06:19:55;;;;;;;;;;;;;;;-2.08;95.62;100519.05;130705;1302;22547;-84
2023/12/07 06:22:57;;;;;;;;;;;;;;;-2.03;95.71;100526.80;130735;1303;24307;-85
2023/12/07 06:25:58;;;;;;;;;;;;;;;-1.99;95.69;100531.59;132366;1302;22679;-85
2023/12/07 06:28:58;;;;;;;;;;;;;;;-1.96;95.96;100531.46;133215;1301;22589;-85
2023/12/07 06:32:00;;;;;;;;;;;;;;;-1.94;95.70;100535.00;133297;1301;23973;-85
2023/12/07 06:35:00;;;;;;;;;;;;;;;-1.91;95.78;100534.31;130592;1303;24510;-85
2023/12/07 06:38:02;;;;;;;;;;;;;;;-1.88;95.80;100542.70;130847;1295;22599;-85
2023/12/07 06:41:02;;;;;;;;;;;;;;;-1.86;95.80;100541.70;133399;1301;22469;-85
2023/12/07 06:44:02;;;;;;;;;;;;;;;-1.84;95.53;100545.94;133414;1301;22506;-85
2023/12/07 06:47:04;;;;;;;;;;;;;;;-1.83;95.54;100546.54;132513;1296;24880;-84
2023/12/07 06:50:08;;;;;;;;;;;;;;;-1.78;95.63;100549.32;130544;1296;22555;-85
2023/12/07 06:53:08;;;;;;;;;;;;;;;-1.80;95.32;100552.69;131748;1303;23329;-85
2023/12/07 06:56:09;;;;;;;;;;;;;;;-1.81;95.23;100555.16;132128;1302;22578;-85
2023/12/07 06:59:10;;;;;;;;;;;;;;;-1.84;95.17;100563.77;130999;1303;24231;-85
2023/12/07 07:02:10;;;;;;;;;;;;;;;-1.80;95.45;100564.67;130891;1303;22591;-84
2023/12/07 07:05:11;;;;;;;;;;;;;;;-1.79;95.49;100569.43;130710;1302;26625;-84
2023/12/07 07:08:11;;;;;;;;;;;;;;;-1.76;95.23;100568.27;131930;1302;22520;-85
2023/12/07 07:11:13;;;;;;;;;;;;;;;-1.72;95.42;100572.77;130934;1296;24762;-84
2023/12/07 07:14:13;;;;;;;;;;;;;;;-1.68;95.65;100571.33;130717;1302;22559;-85
2023/12/07 07:17:14;;;;;;;;;;;;;;;-1.65;95.45;100574.67;130826;1303;25454;-84
2023/12/07 07:20:14;;;;;;;;;;;;;;;-1.67;95.28;100573.38;132046;1302;22523;-85
2023/12/07 07:23:15;;;;;;;;;;;;;;;-1.70;95.06;100576.47;133410;1300;22436;-85
2023/12/07 07:26:16;;;;;;;;;;;;;;;-1.70;95.24;100578.73;133416;1303;22493;-84
2023/12/07 07:29:17;;;;;;;;;;;;;;;-1.68;95.39;100577.07;133525;1302;23321;-85
2023/12/07 07:32:17;;;;;;;;;;;;;;;-1.66;95.36;100580.23;133545;1301;22533;-85
2023/12/07 07:35:18;;;;;;;;;;;;;;;-1.69;95.23;100577.81;133536;1303;22582;-85
2023/12/07 07:38:18;;;;;;;;;;;;;;;-1.75;94.84;100581.55;133540;1301;22501;-85
2023/12/07 07:41:19;;;;;;;;;;;;;;;-1.76;94.96;100583.02;133589;1301;22429;-86
2023/12/07 07:44:19;;;;;;;;;;;;;;;-1.75;94.98;100585.26;133570;1302;23311;-85
2023/12/07 07:47:19;;;;;;;;;;;;;;;-1.74;94.98;100586.58;133562;1301;23400;-85
2023/12/07 07:50:20;;;;;;;;;;;;;;;-1.74;95.24;100589.00;133602;1301;22490;-86
2023/12/07 07:53:20;;;;;;;;;;;;;;;-1.70;95.24;100591.58;133596;1302;23117;-86
2023/12/07 07:56:21;;;;;;;;;;;;;;;-1.68;95.38;100593.38;132845;1295;23242;-85
2023/12/07 07:59:21;;;;;;;;;;;;;;;-1.73;94.66;100596.23;130816;1301;23320;-86
2023/12/07 08:02:21;;;;;;;;;;;;;;;-1.75;94.78;100598.21;130535;1301;22834;-86
2023/12/07 08:05:22;;;;;;;;;;;;;;;-1.76;94.96;100596.89;130548;1303;22568;-86
2023/12/07 08:08:22;;;;;;;;;;;;;;;-1.74;95.17;100600.64;130899;1302;22580;-86
2023/12/07 08:11:23;;;;;;;;;;;;;;;-1.74;94.94;100604.08;133565;1301;22477;-86
2023/12/07 08:14:23;;;;;;;;;;;;;;;-1.74;95.00;100605.97;133530;1301;22531;-86
2023/12/07 08:17:25;;;;;;;;;;;;;;;-1.72;95.19;100611.95;132958;1301;22589;-85
2023/12/07 08:20:26;;;;;;;;;;;;;;;-1.70;95.24;100612.20;130676;1301;22560;-85
2023/12/07 08:23:26;;;;;;;;;;;;;;;-1.68;95.25;100610.88;132142;1303;22567;-85
2023/12/07 08:26:27;;;;;;;;;;;;;;;-1.69;95.24;100607.14;131559;1299;22553;-85
2023/12/07 08:29:28;;;;;;;;;;;;;;;-1.68;95.31;100610.02;130562;1302;22564;-85
2023/12/07 08:32:29;;;;;;;;;;;;;;;-1.66;95.08;100605.59;130661;1300;22566;-85
2023/12/07 08:35:29;;;;;;;;;;;;;;;-1.62;95.25;100606.95;130679;1294;24281;-85
2023/12/07 08:38:29;;;;;;;;;;;;;;;-1.55;95.46;100612.16;130966;1302;22584;-85
2023/12/07 08:41:30;;;;;;;;;;;;;;;-1.50;95.34;100612.60;131055;1302;22561;-86
2023/12/07 08:44:31;;;;;;;;;;;;;;;-1.46;95.21;100613.39;132345;1301;22635;-85
2023/12/07 08:47:31;;;;;;;;;;;;;;;-1.40;95.40;100615.89;132096;1300;25305;-86
2023/12/07 08:50:32;;;;;;;;;;;;;;;-1.38;95.22;100620.10;132041;1301;22532;-87
2023/12/07 08:53:32;;;;;;;;;;;;;;;-1.36;95.20;100619.30;131398;1301;22670;-87
2023/12/07 08:56:32;;;;;;;;;;;;;;;-1.29;95.45;100619.52;133223;1303;22519;-88
2023/12/07 08:59:33;;;;;;;;;;;;;;;-1.22;95.45;100623.13;133425;1300;22476;-88
2023/12/07 09:02:33;;;;;;;;;;;;;;;-1.18;95.26;100622.73;131066;1301;22544;-87
2023/12/07 09:05:33;;;;;;;;;;;;;;;-1.17;95.14;100625.28;131396;1300;23048;-87
2023/12/07 09:08:34;;;;;;;;;;;;;;;-1.13;95.14;100628.72;131590;1294;22568;-86
2023/12/07 09:11:34;;;;;;;;;;;;;;;-1.07;95.13;100626.37;131700;1301;22550;-86
2023/12/07 09:14:35;;;;;;;;;;;;;;;-1.03;95.29;100625.98;130814;1300;22771;-86
2023/12/07 09:17:37;;;;;;;;;;;;;;;-1.02;94.89;100621.90;130714;1298;22694;-87
2023/12/07 09:20:45;;;;;;;;;;;;;;;-1.00;94.82;100620.05;130857;1302;25234;-86
2023/12/07 09:23:46;;;;;;;;;;;;;;;-0.96;95.07;100624.01;130718;1300;22543;-86
2023/12/07 09:26:46;;;;;;;;;;;;;;;-0.89;95.07;100621.42;130904;1289;22634;-86
2023/12/07 09:29:48;;;;;;;;;;;;;;;-0.82;95.14;100624.70;130904;1285;22649;-87
2023/12/07 09:32:50;;;;;;;;;;;;;;;-0.78;95.05;100620.80;130737;1302;25248;-87
2023/12/07 09:35:51;;;;;;;;;;;;;;;-0.72;95.00;100620.85;131780;1303;22537;-87
2023/12/07 09:38:51;;;;;;;;;;;;;;;-0.77;94.53;100619.58;130637;1304;23494;-87
2023/12/07 09:41:52;;;;;;;;;;;;;;;-0.89;94.01;100618.80;130532;1301;25295;-87
2023/12/07 09:44:52;;;;;;;;;;;;;;;-0.93;94.16;100620.20;130591;1302;22524;-87
2023/12/07 09:47:54;;;;;;;;;;;;;;;-0.92;94.61;100612.69;130490;1302;22546;-87
2023/12/07 09:50:56;;;;;;;;;;;;;;;-0.90;94.26;100610.54;130511;1303;22539;-86
2023/12/07 09:53:56;;;;;;;;;;;;;;;-0.89;94.12;100609.08;130650;1300;23331;-87
2023/12/07 09:56:57;;;;;;;;;;;;;;;-0.86;94.08;100605.60;130614;1302;27563;-87
2023/12/07 09:59:57;;;;;;;;;;;;;;;-0.79;94.55;100602.28;131607;1303;22536;-87
2023/12/07 10:02:58;;;;;;;;;;;;;;;-0.71;94.40;100607.04;130782;1302;22682;-86
2023/12/07 10:05:59;;;;;;;;;;;;;;;-0.68;94.17;100606.36;130753;1302;23843;-88
2023/12/07 10:09:03;;;;;;;;;;;;;;;-0.62;94.30;100603.44;130667;1303;23359;-86
2023/12/07 10:12:07;;;;;;;;;;;;;;;-0.57;94.15;100602.45;130897;1303;25504;-86
2023/12/07 10:15:17;;;;;;;;;;;;;;;-0.52;94.27;100607.42;131019;1301;24259;-86
2023/12/07 10:18:23;;;;;;;;;;;;;;;-0.47;94.24;100610.81;130841;1300;22677;-86
2023/12/07 10:21:32;;;;;;;;;;;;;;;-0.45;94.00;100615.04;131336;1302;23695;-86
2023/12/07 10:24:33;;;;;;;;;;;;;;;-0.43;94.18;100613.89;130900;1303;22577;-86
2023/12/07 10:27:34;;;;;;;;;;;;;;;-0.40;93.85;100611.13;130845;1300;22550;-85
2023/12/07 10:30:35;;;;;;;;;;;;;;;-0.41;93.85;100614.10;130801;1300;22618;-85
2023/12/07 10:33:36;;;;;;;;;;;;;;;-0.37;93.88;100613.52;131069;1301;22676;-85
2023/12/07 10:36:36;;;;;;;;;;;;;;;-0.31;94.00;100616.36;130920;1300;26546;-85
2023/12/07 10:39:37;;;;;;;;;;;;;;;-0.25;94.03;100609.27;130794;1299;22600;-85
2023/12/07 10:42:40;;;;;;;;;;;;;;;-0.22;94.01;100609.23;130774;1300;22647;-85
2023/12/07 10:45:41;;;;;;;;;;;;;;;-0.24;93.55;100612.29;131853;1301;23262;-85
2023/12/07 10:48:44;;;;;;;;;;;;;;;-0.20;93.72;100608.98;132059;1301;22555;-85
2023/12/07 10:51:54;;;;;;;;;;;;;;;-0.19;93.60;100607.67;130820;1301;23450;-85
2023/12/07 10:55:00;;;;;;;;;;;;;;;-0.20;93.40;100609.16;132559;1301;22614;-84
2023/12/07 10:58:01;;;;;;;;;;;;;;;-0.18;93.61;100606.73;133579;1301;22619;-84
2023/12/07 11:01:02;;;;;;;;;;;;;;;-0.15;93.50;100612.14;131463;1301;22615;-84
2023/12/07 11:04:05;;;;;;;;;;;;;;;-0.10;93.61;100612.71;133302;1303;22584;-86
2023/12/07 11:07:09;;;;;;;;;;;;;;;-0.00;93.90;100614.81;131106;1293;24242;-87
2023/12/07 11:10:16;;;;;;;;;;;;;;;0.05;93.68;100615.02;131170;1300;22540;-87
2023/12/07 11:13:24;;;;;;;;;;;;;;;0.08;93.38;100614.54;131439;1304;22624;-87
2023/12/07 11:16:51;;;;;;;;;;;;;;;0.05;93.37;100611.59;131204;1300;23364;-87
2023/12/07 11:19:52;;;;;;;;;;;;;;;0.05;93.40;100610.67;133267;1301;23190;-87
2023/12/07 11:22:52;;;;;;;;;;;;;;;0.07;93.31;100604.66;132687;1289;22702;-87
2023/12/07 11:25:54;;;;;;;;;;;;;;;0.06;93.28;100604.50;131158;1303;25359;-86
2023/12/07 11:28:55;;;;;;;;;;;;;;;0.12;93.52;100601.23;130705;1301;22612;-87
2023/12/07 11:31:56;;;;;;;;;;;;;;;0.17;93.61;100599.86;130661;1302;25133;-86
2023/12/07 11:35:02;;;;;;;;;;;;;;;0.17;93.34;100603.69;130854;1301;22596;-86
2023/12/07 11:38:03;;;;;;;;;;;;;;;0.16;93.27;100599.59;130837;1300;22603;-87
2023/12/07 11:41:04;;;;;;;;;;;;;;;0.17;93.21;100604.05;131498;1300;22698;-86
2023/12/07 11:44:04;;;;;;;;;;;;;;;0.14;93.08;100603.40;131514;1293;23535;-87
2023/12/07 11:47:06;;;;;;;;;;;;;;;0.12;93.08;100603.84;131020;1301;22616;-87
2023/12/07 11:50:06;;;;;;;;;;;;;;;0.12;93.26;100602.94;131327;1298;23800;-87
2023/12/07 11:53:07;;;;;;;;;;;;;;;0.12;93.33;100598.76;131087;1294;22580;-86
2023/12/07 11:56:09;;;;;;;;;;;;;;;0.17;93.37;100600.09;131063;1307;22670;-86
2023/12/07 11:59:10;;;;;;;;;;;;;;;0.23;93.55;100591.55;130769;1303;22583;-87
2023/12/07 12:02:13;;;;;;;;;;;;;;;0.26;93.47;100591.89;131161;1301;22603;-87
2023/12/07 12:05:14;;;;;;;;;;;;;;;0.28;93.30;100595.45;130734;1303;23407;-87
2023/12/07 12:08:15;;;;;;;;;;;;;;;0.23;93.14;100596.24;131189;1302;22543;-87
2023/12/07 12:11:16;;;;;;;;;;;;;;;0.22;93.27;100600.83;131006;1306;23011;-87
2023/12/07 12:14:16;;;;;;;;;;;;;;;0.25;93.45;100600.30;131229;1303;22562;-87
2023/12/07 12:17:17;;;;;;;;;;;;;;;0.27;93.50;100599.00;131182;1300;22570;-87
2023/12/07 12:20:18;;;;;;;;;;;;;;;0.27;93.45;100599.13;131250;1308;22636;-87
2023/12/07 12:23:19;;;;;;;;;;;;;;;0.26;93.43;100597.33;131397;1302;22540;-88
2023/12/07 12:26:20;;;;;;;;;;;;;;;0.19;93.26;100596.66;132119;1300;22566;-87
2023/12/07 12:29:21;;;;;;;;;;;;;;;0.15;93.11;100599.85;131149;1303;24451;-87
2023/12/07 12:32:22;;;;;;;;;;;;;;;0.12;93.46;100599.65;132325;1300;23222;-86
2023/12/07 12:35:22;;;;;;;;;;;;;;;0.11;93.35;100608.06;131907;1301;22552;-87
2023/12/07 12:38:23;;;;;;;;;;;;;;;0.08;93.33;100605.64;131034;1305;25396;-87
2023/12/07 12:41:23;;;;;;;;;;;;;;;0.04;93.33;100607.63;131173;1301;25404;-87
2023/12/07 12:44:24;;;;;;;;;;;;;;;0.02;93.67;100609.10;131077;1292;24914;-87
2023/12/07 12:47:24;;;;;;;;;;;;;;;0.01;93.48;100612.65;132005;1300;22565;-86
2023/12/07 12:50:39;;;;;;;;;;;;;;;-0.02;93.78;100607.05;131035;1304;22656;-86
2023/12/07 12:53:45;;;;;;;;;;;;;;;-0.02;93.70;100611.77;130953;1297;23366;-87
2023/12/07 12:56:45;;;;;;;;;;;;;;;-0.06;93.79;100610.23;132343;1307;25342;-87
2023/12/07 12:59:48;;;;;;;;;;;;;;;-0.08;93.94;100608.42;132165;1301;22614;-86
2023/12/07 13:02:49;;;;;;;;;;;;;;;-0.11;94.09;100602.38;130967;1295;22594;-87
2023/12/07 13:05:49;;;;;;;;;;;;;;;-0.08;94.10;100607.03;131213;1298;22576;-87
2023/12/07 13:08:50;;;;;;;;;;;;;;;-0.01;94.31;100607.35;131259;1297;22516;-87
2023/12/07 13:11:50;;;;;;;;;;;;;;;0.02;94.53;100604.23;132814;1302;23642;-87
2023/12/07 13:14:50;;;;;;;;;;;;;;;0.02;94.27;100604.05;130962;1297;22584;-86
2023/12/07 13:17:51;;;;;;;;;;;;;;;0.04;94.18;100601.89;131048;1297;22590;-86
2023/12/07 13:20:51;;;;;;;;;;;;;;;0.06;94.32;100602.47;132127;1303;22497;-87
2023/12/07 13:23:51;;;;;;;;;;;;;;;0.07;94.40;100602.39;131209;1301;22581;-86
2023/12/07 13:26:52;;;;;;;;;;;;;;;0.07;94.32;100603.11;132399;1302;25361;-86
2023/12/07 13:29:53;;;;;;;;;;;;;;;0.09;94.50;100607.31;131964;1300;25332;-86
2023/12/07 13:32:53;;;;;;;;;;;;;;;0.08;94.26;100605.09;131021;1302;22547;-86
2023/12/07 13:35:54;;;;;;;;;;;;;;;0.06;94.32;100603.85;131248;1306;25444;-86
2023/12/07 13:38:55;;;;;;;;;;;;;;;0.09;94.62;100606.95;130990;1300;23042;-87
2023/12/07 13:41:56;;;;;;;;;;;;;;;0.10;94.58;100611.10;131199;1303;25339;-86
2023/12/07 13:44:57;;;;;;;;;;;;;;;0.08;94.47;100618.36;133091;1301;22679;-86
2023/12/07 13:47:58;;;;;;;;;;;;;;;0.05;94.43;100621.30;133609;1300;22533;-87
2023/12/07 13:50:59;;;;;;;;;;;;;;;0.03;94.68;100620.52;131590;1302;22546;-86
2023/12/07 13:53:59;;;;;;;;;;;;;;;0.02;94.57;100624.23;130921;1301;23692;-87
2023/12/07 13:56:59;;;;;;;;;;;;;;;0.01;94.64;100624.67;130831;1303;27428;-86
2023/12/07 14:00:00;;;;;;;;;;;;;;;-0.03;94.72;100623.82;130787;1301;23189;-86
2023/12/07 14:03:00;;;;;;;;;;;;;;;-0.06;94.77;100625.54;130844;1298;22591;-86
2023/12/07 14:06:01;;;;;;;;;;;;;;;-0.10;94.88;100623.48;130785;1298;22547;-85
2023/12/07 14:09:02;;;;;;;;;;;;;;;-0.13;94.86;100622.98;131155;1300;22551;-86
2023/12/07 14:12:03;;;;;;;;;;;;;;;-0.17;94.79;100620.80;132777;1303;22707;-86
2023/12/07 14:15:04;;;;;;;;;;;;;;;-0.20;95.04;100621.64;133448;1301;182428;-87
2023/12/07 14:18:04;;;;;;;;;;;;;;;-0.20;94.98;100625.30;131683;1297;23500;-87
2023/12/07 14:21:05;;;;;;;;;;;;;;;-0.22;95.08;100631.02;133433;1300;22574;-87
2023/12/07 14:24:05;;;;;;;;;;;;;;;-0.27;95.23;100634.06;130405;1301;22610;-86
2023/12/07 14:27:06;;;;;;;;;;;;;;;-0.27;95.56;100635.09;130619;1302;23050;-87
2023/12/07 14:30:10;;;;;;;;;;;;;;;-0.26;95.49;100635.71;130383;1303;22623;-86
2023/12/07 14:33:11;;;;;;;;;;;;;;;-0.24;95.70;100641.86;130976;1301;22554;-88
2023/12/07 14:36:12;;;;;;;;;;;;;;;-0.25;95.67;100643.83;130956;1303;22673;-88